EGNH

Blackpool International Airport

Blackpool, United Kingdom
METAR EGNH 160550Z 24012KT 9999 FEW008 SCT015 14/12 Q1008 WS RWY28
Observed Flight Rules
Aug-16 @ 05:50 UTC (25 minutes ago) Visual Flight Rules
Wind Visibility Clouds
240° at 12 knots 10,000+ meters
  • Few at 800' AGL
  • Scattered at 1,500' AGL
Temperatures Readings
Current 14°C / 57°F
Dewpoint 12°C / 54°F
Humidity 88%
Altimeter 29.76" Hg
Pressure 1008 hPa
Elevation 10
METAR EGNH 160550Z 24012KT 9999 FEW008 SCT015 14/12 Q1008 WS RWY28
Observed Flight Rules
Aug-16 @ 05:50 UTC
(25 minutes ago)
VFR
Wind Visibility
240° at 12 knots 10,000+ meters
Clouds
  • Few at 800' AGL
  • Scattered at 1,500' AGL
Temperature Dewpoint
14°C / 57°F 12°C / 54°F
Humidity Altimeter Pressure
88% 29.76" Hg 1008 hPa